sensor_id;sensor_type;location;lat;lon;timestamp;pressure;altitude;pressure_sealevel;temperature;humidity
76808;BME280;65758;45.458;11.062;2023-08-30T00:02:12;99849.69;;;18.91;69.94
76808;BME280;65758;45.458;11.062;2023-08-30T00:04:39;99843.52;;;18.90;70.03
76808;BME280;65758;45.458;11.062;2023-08-30T00:07:05;99844.49;;;18.88;70.01
76808;BME280;65758;45.458;11.062;2023-08-30T00:09:32;99836.56;;;18.88;70.11
76808;BME280;65758;45.458;11.062;2023-08-30T00:11:59;99837.90;;;18.88;70.21
76808;BME280;65758;45.458;11.062;2023-08-30T00:14:27;99831.48;;;18.86;70.21
76808;BME280;65758;45.458;11.062;2023-08-30T00:16:53;99828.63;;;18.85;70.40
76808;BME280;65758;45.458;11.062;2023-08-30T00:19:20;99825.83;;;18.83;70.22
76808;BME280;65758;45.458;11.062;2023-08-30T00:21:47;99825.16;;;18.80;70.21
76808;BME280;65758;45.458;11.062;2023-08-30T00:24:14;99824.58;;;18.79;70.21
76808;BME280;65758;45.458;11.062;2023-08-30T00:26:41;99821.73;;;18.76;70.51
76808;BME280;65758;45.458;11.062;2023-08-30T00:29:08;99821.48;;;18.75;70.28
76808;BME280;65758;45.458;11.062;2023-08-30T00:31:34;99824.02;;;18.69;70.29
76808;BME280;65758;45.458;11.062;2023-08-30T00:34:01;99825.17;;;18.62;70.36
76808;BME280;65758;45.458;11.062;2023-08-30T00:36:28;99825.84;;;18.59;70.39
76808;BME280;65758;45.458;11.062;2023-08-30T00:38:55;99832.81;;;18.57;70.40
76808;BME280;65758;45.458;11.062;2023-08-30T00:41:22;99833.86;;;18.54;70.41
76808;BME280;65758;45.458;11.062;2023-08-30T00:43:49;99837.52;;;18.53;70.65
76808;BME280;65758;45.458;11.062;2023-08-30T00:46:16;99840.85;;;18.53;70.65
76808;BME280;65758;45.458;11.062;2023-08-30T00:48:44;99843.25;;;18.52;70.64
76808;BME280;65758;45.458;11.062;2023-08-30T00:51:12;99840.70;;;18.47;70.50
76808;BME280;65758;45.458;11.062;2023-08-30T00:53:39;99838.45;;;18.41;70.78
76808;BME280;65758;45.458;11.062;2023-08-30T00:56:06;99837.23;;;18.39;70.89
76808;BME280;65758;45.458;11.062;2023-08-30T00:58:33;99837.25;;;18.40;70.97
76808;BME280;65758;45.458;11.062;2023-08-30T01:01:00;99839.17;;;18.41;71.14
76808;BME280;65758;45.458;11.062;2023-08-30T01:03:28;99840.28;;;18.42;71.31
76808;BME280;65758;45.458;11.062;2023-08-30T01:05:55;99836.70;;;18.43;71.40
76808;BME280;65758;45.458;11.062;2023-08-30T01:08:22;99835.02;;;18.45;71.25
76808;BME280;65758;45.458;11.062;2023-08-30T01:13:56;99842.14;;;18.51;71.41
76808;BME280;65758;45.458;11.062;2023-08-30T01:16:25;99844.39;;;18.54;71.28
76808;BME280;65758;45.458;11.062;2023-08-30T01:18:56;99842.95;;;18.54;71.36
76808;BME280;65758;45.458;11.062;2023-08-30T01:22:19;99840.23;;;18.55;71.28
76808;BME280;65758;45.458;11.062;2023-08-30T01:24:41;99837.36;;;18.56;71.25
76808;BME280;65758;45.458;11.062;2023-08-30T01:27:12;99843.05;;;18.58;71.36
76808;BME280;65758;45.458;11.062;2023-08-30T01:29:43;99847.39;;;18.59;71.19
76808;BME280;65758;45.458;11.062;2023-08-30T01:32:11;99854.09;;;18.60;71.38
76808;BME280;65758;45.458;11.062;2023-08-30T01:34:39;99854.23;;;18.58;71.53
76808;BME280;65758;45.458;11.062;2023-08-30T01:37:07;99852.41;;;18.55;70.93
76808;BME280;65758;45.458;11.062;2023-08-30T01:39:36;99851.65;;;18.48;70.94
76808;BME280;65758;45.458;11.062;2023-08-30T01:42:05;99851.91;;;18.46;71.02
76808;BME280;65758;45.458;11.062;2023-08-30T01:44:33;99854.13;;;18.46;71.08
76808;BME280;65758;45.458;11.062;2023-08-30T01:47:00;99856.68;;;18.45;71.41
76808;BME280;65758;45.458;11.062;2023-08-30T01:49:30;99854.31;;;18.44;71.62
76808;BME280;65758;45.458;11.062;2023-08-30T01:51:58;99857.56;;;18.43;71.77
76808;BME280;65758;45.458;11.062;2023-08-30T01:54:27;99862.39;;;18.42;71.95
76808;BME280;65758;45.458;11.062;2023-08-30T01:56:54;99863.45;;;18.41;72.05
76808;BME280;65758;45.458;11.062;2023-08-30T01:59:21;99866.13;;;18.39;72.01
76808;BME280;65758;45.458;11.062;2023-08-30T02:01:48;99863.23;;;18.37;72.03
76808;BME280;65758;45.458;11.062;2023-08-30T02:04:15;99860.23;;;18.35;72.10
76808;BME280;65758;45.458;11.062;2023-08-30T02:06:54;99863.80;;;18.33;72.11
76808;BME280;65758;45.458;11.062;2023-08-30T02:09:40;99864.55;;;18.31;72.15
76808;BME280;65758;45.458;11.062;2023-08-30T02:12:13;99866.63;;;18.29;72.16
76808;BME280;65758;45.458;11.062;2023-08-30T02:14:45;99862.75;;;18.25;72.31
76808;BME280;65758;45.458;11.062;2023-08-30T02:17:17;99863.57;;;18.22;72.33
76808;BME280;65758;45.458;11.062;2023-08-30T02:19:45;99862.11;;;18.19;72.34
76808;BME280;65758;45.458;11.062;2023-08-30T02:22:16;99860.28;;;18.16;72.36
76808;BME280;65758;45.458;11.062;2023-08-30T02:24:42;99862.51;;;18.13;72.46
76808;BME280;65758;45.458;11.062;2023-08-30T02:27:09;99863.13;;;18.09;72.39
76808;BME280;65758;45.458;11.062;2023-08-30T02:29:36;99863.33;;;18.07;72.35
76808;BME280;65758;45.458;11.062;2023-08-30T02:32:04;99862.83;;;18.06;72.35
76808;BME280;65758;45.458;11.062;2023-08-30T02:34:33;99858.80;;;18.05;72.42
76808;BME280;65758;45.458;11.062;2023-08-30T02:36:59;99862.04;;;18.04;72.42
76808;BME280;65758;45.458;11.062;2023-08-30T02:39:26;99864.72;;;18.02;72.45
76808;BME280;65758;45.458;11.062;2023-08-30T02:41:54;99862.14;;;18.00;72.42
76808;BME280;65758;45.458;11.062;2023-08-30T02:44:20;99867.04;;;17.99;72.53
76808;BME280;65758;45.458;11.062;2023-08-30T02:46:47;99866.33;;;17.98;72.64
76808;BME280;65758;45.458;11.062;2023-08-30T02:49:14;99869.50;;;17.97;72.55
76808;BME280;65758;45.458;11.062;2023-08-30T02:51:40;99864.25;;;17.96;72.52
76808;BME280;65758;45.458;11.062;2023-08-30T02:54:07;99866.77;;;17.94;72.38
76808;BME280;65758;45.458;11.062;2023-08-30T02:56:34;99861.48;;;17.92;72.27
76808;BME280;65758;45.458;11.062;2023-08-30T02:59:02;99861.19;;;17.90;72.42
76808;BME280;65758;45.458;11.062;2023-08-30T03:01:28;99863.02;;;17.89;72.56
76808;BME280;65758;45.458;11.062;2023-08-30T03:03:56;99868.51;;;17.88;72.44
76808;BME280;65758;45.458;11.062;2023-08-30T03:06:23;99868.06;;;17.87;72.31
76808;BME280;65758;45.458;11.062;2023-08-30T03:08:50;99866.19;;;17.86;72.24
76808;BME280;65758;45.458;11.062;2023-08-30T03:11:17;99862.21;;;17.86;71.90
76808;BME280;65758;45.458;11.062;2023-08-30T03:13:48;99861.48;;;17.83;71.88
76808;BME280;65758;45.458;11.062;2023-08-30T03:16:16;99859.39;;;17.83;71.72
76808;BME280;65758;45.458;11.062;2023-08-30T03:18:44;99863.08;;;17.84;71.90
76808;BME280;65758;45.458;11.062;2023-08-30T03:21:11;99860.05;;;17.86;71.88
76808;BME280;65758;45.458;11.062;2023-08-30T03:23:39;99868.06;;;17.87;71.95
76808;BME280;65758;45.458;11.062;2023-08-30T03:28:37;99862.30;;;17.88;72.00
76808;BME280;65758;45.458;11.062;2023-08-30T03:33:39;99853.12;;;17.87;71.92
76808;BME280;65758;45.458;11.062;2023-08-30T03:36:12;99854.05;;;17.88;71.73
76808;BME280;65758;45.458;11.062;2023-08-30T03:38:39;99856.77;;;17.87;71.85
76808;BME280;65758;45.458;11.062;2023-08-30T03:41:06;99858.31;;;17.88;71.85
76808;BME280;65758;45.458;11.062;2023-08-30T03:43:33;99855.60;;;17.89;71.89
76808;BME280;65758;45.458;11.062;2023-08-30T03:46:01;99857.56;;;17.90;71.80
76808;BME280;65758;45.458;11.062;2023-08-30T03:48:30;99854.89;;;17.91;71.69
76808;BME280;65758;45.458;11.062;2023-08-30T03:50:57;99859.65;;;17.91;71.70
76808;BME280;65758;45.458;11.062;2023-08-30T03:53:25;99856.23;;;17.91;71.69
76808;BME280;65758;45.458;11.062;2023-08-30T03:55:52;99860.05;;;17.90;71.63
76808;BME280;65758;45.458;11.062;2023-08-30T03:58:19;99858.48;;;17.88;71.47
76808;BME280;65758;45.458;11.062;2023-08-30T04:00:46;99861.55;;;17.87;71.45
76808;BME280;65758;45.458;11.062;2023-08-30T04:03:15;99861.59;;;17.86;71.46
76808;BME280;65758;45.458;11.062;2023-08-30T04:05:42;99865.02;;;17.88;71.47
76808;BME280;65758;45.458;11.062;2023-08-30T04:08:09;99868.05;;;17.89;71.43
76808;BME280;65758;45.458;11.062;2023-08-30T04:10:38;99866.28;;;17.90;71.30
76808;BME280;65758;45.458;11.062;2023-08-30T04:13:06;99870.61;;;17.92;71.53
76808;BME280;65758;45.458;11.062;2023-08-30T04:15:36;99872.98;;;17.93;71.39
76808;BME280;65758;45.458;11.062;2023-08-30T04:18:03;99871.19;;;17.94;71.40
76808;BME280;65758;45.458;11.062;2023-08-30T04:20:31;99870.64;;;17.94;71.52
76808;BME280;65758;45.458;11.062;2023-08-30T04:22:59;99874.63;;;17.94;71.37
76808;BME280;65758;45.458;11.062;2023-08-30T04:25:31;99879.42;;;17.95;71.37
76808;BME280;65758;45.458;11.062;2023-08-30T04:27:58;99879.42;;;17.95;71.52
76808;BME280;65758;45.458;11.062;2023-08-30T04:30:25;99888.18;;;17.95;71.35
76808;BME280;65758;45.458;11.062;2023-08-30T04:32:52;99889.16;;;17.92;71.27
76808;BME280;65758;45.458;11.062;2023-08-30T04:35:19;99890.67;;;17.90;71.15
76808;BME280;65758;45.458;11.062;2023-08-30T04:37:46;99891.65;;;17.87;71.17
76808;BME280;65758;45.458;11.062;2023-08-30T04:40:14;99885.60;;;17.84;71.10
76808;BME280;65758;45.458;11.062;2023-08-30T04:42:41;99882.85;;;17.83;71.29
76808;BME280;65758;45.458;11.062;2023-08-30T04:45:08;99884.81;;;17.86;71.20
76808;BME280;65758;45.458;11.062;2023-08-30T04:47:36;99886.36;;;17.85;71.24
76808;BME280;65758;45.458;11.062;2023-08-30T04:50:04;99882.64;;;17.82;71.21
76808;BME280;65758;45.458;11.062;2023-08-30T04:52:32;99885.68;;;17.77;71.29
76808;BME280;65758;45.458;11.062;2023-08-30T04:54:59;99884.41;;;17.73;71.24
76808;BME280;65758;45.458;11.062;2023-08-30T04:57:27;99883.33;;;17.72;71.36
76808;BME280;65758;45.458;11.062;2023-08-30T04:59:55;99878.58;;;17.70;71.33
76808;BME280;65758;45.458;11.062;2023-08-30T05:02:22;99881.10;;;17.72;71.49
76808;BME280;65758;45.458;11.062;2023-08-30T05:04:58;99884.75;;;17.72;71.36
76808;BME280;65758;45.458;11.062;2023-08-30T05:07:25;99883.80;;;17.72;71.26
76808;BME280;65758;45.458;11.062;2023-08-30T05:09:52;99884.91;;;17.74;71.20
76808;BME280;65758;45.458;11.062;2023-08-30T05:12:19;99886.55;;;17.75;71.21
76808;BME280;65758;45.458;11.062;2023-08-30T05:14:46;99890.80;;;17.75;71.05
76808;BME280;65758;45.458;11.062;2023-08-30T05:17:13;99889.02;;;17.76;71.01
76808;BME280;65758;45.458;11.062;2023-08-30T05:19:39;99891.45;;;17.77;71.00
76808;BME280;65758;45.458;11.062;2023-08-30T05:22:06;99891.02;;;17.79;70.92
76808;BME280;65758;45.458;11.062;2023-08-30T05:24:35;99892.88;;;17.82;70.88
76808;BME280;65758;45.458;11.062;2023-08-30T05:27:02;99891.19;;;17.85;70.77
76808;BME280;65758;45.458;11.062;2023-08-30T05:29:37;99890.65;;;17.89;70.64
76808;BME280;65758;45.458;11.062;2023-08-30T05:32:04;99890.36;;;17.93;70.52
76808;BME280;65758;45.458;11.062;2023-08-30T05:35:06;99892.17;;;17.99;70.50
76808;BME280;65758;45.458;11.062;2023-08-30T05:37:53;99891.87;;;18.05;70.27
76808;BME280;65758;45.458;11.062;2023-08-30T05:40:32;99896.89;;;18.11;70.14
76808;BME280;65758;45.458;11.062;2023-08-30T05:42:59;99898.71;;;18.15;70.13
76808;BME280;65758;45.458;11.062;2023-08-30T05:45:26;99899.69;;;18.21;70.10
76808;BME280;65758;45.458;11.062;2023-08-30T05:47:53;99904.34;;;18.26;69.87
76808;BME280;65758;45.458;11.062;2023-08-30T05:50:20;99906.88;;;18.27;69.58
76808;BME280;65758;45.458;11.062;2023-08-30T05:52:47;99909.48;;;18.26;69.62
76808;BME280;65758;45.458;11.062;2023-08-30T05:55:14;99910.70;;;18.26;69.74
76808;BME280;65758;45.458;11.062;2023-08-30T05:57:41;99910.98;;;18.29;70.08
76808;BME280;65758;45.458;11.062;2023-08-30T06:00:08;99916.23;;;18.35;70.38
76808;BME280;65758;45.458;11.062;2023-08-30T06:02:40;99919.67;;;18.42;70.09
76808;BME280;65758;45.458;11.062;2023-08-30T06:05:07;99921.17;;;18.49;69.89
76808;BME280;65758;45.458;11.062;2023-08-30T06:07:34;99924.90;;;18.54;69.58
76808;BME280;65758;45.458;11.062;2023-08-30T06:10:01;99924.98;;;18.57;69.19
76808;BME280;65758;45.458;11.062;2023-08-30T06:12:28;99926.75;;;18.57;68.87
76808;BME280;65758;45.458;11.062;2023-08-30T06:14:55;99929.44;;;18.58;69.03
76808;BME280;65758;45.458;11.062;2023-08-30T06:17:22;99935.17;;;18.60;68.84
76808;BME280;65758;45.458;11.062;2023-08-30T06:19:48;99942.31;;;18.66;69.04
76808;BME280;65758;45.458;11.062;2023-08-30T06:22:15;99945.46;;;18.73;69.11
76808;BME280;65758;45.458;11.062;2023-08-30T06:24:42;99954.51;;;18.83;69.09
76808;BME280;65758;45.458;11.062;2023-08-30T06:27:09;99961.68;;;18.93;69.08
76808;BME280;65758;45.458;11.062;2023-08-30T06:29:36;99966.30;;;19.03;68.86
76808;BME280;65758;45.458;11.062;2023-08-30T06:32:04;99969.50;;;19.08;68.54
76808;BME280;65758;45.458;11.062;2023-08-30T06:34:30;99971.10;;;19.11;68.48
76808;BME280;65758;45.458;11.062;2023-08-30T06:36:57;99967.79;;;19.17;68.44
76808;BME280;65758;45.458;11.062;2023-08-30T06:39:24;99971.89;;;19.24;68.54
76808;BME280;65758;45.458;11.062;2023-08-30T06:41:51;99970.60;;;19.31;68.44
76808;BME280;65758;45.458;11.062;2023-08-30T06:44:19;99968.64;;;19.39;68.16
76808;BME280;65758;45.458;11.062;2023-08-30T06:46:46;99969.63;;;19.47;67.98
76808;BME280;65758;45.458;11.062;2023-08-30T06:49:13;99968.84;;;19.54;67.78
76808;BME280;65758;45.458;11.062;2023-08-30T06:51:40;99969.95;;;19.61;67.35
76808;BME280;65758;45.458;11.062;2023-08-30T06:54:06;99969.55;;;19.67;67.31
76808;BME280;65758;45.458;11.062;2023-08-30T06:56:33;99968.25;;;19.74;66.91
76808;BME280;65758;45.458;11.062;2023-08-30T06:59:00;99969.50;;;19.81;67.01
76808;BME280;65758;45.458;11.062;2023-08-30T07:01:27;99969.73;;;19.87;67.34
76808;BME280;65758;45.458;11.062;2023-08-30T07:03:54;99968.74;;;19.95;67.30
76808;BME280;65758;45.458;11.062;2023-08-30T07:06:21;99968.93;;;19.99;66.98
76808;BME280;65758;45.458;11.062;2023-08-30T07:08:48;99965.27;;;20.05;66.98
76808;BME280;65758;45.458;11.062;2023-08-30T07:11:14;99968.78;;;20.10;67.02
76808;BME280;65758;45.458;11.062;2023-08-30T07:13:59;99971.98;;;20.17;67.08
76808;BME280;65758;45.458;11.062;2023-08-30T07:16:26;99968.54;;;20.21;67.03
76808;BME280;65758;45.458;11.062;2023-08-30T07:18:52;99971.64;;;20.28;67.09
76808;BME280;65758;45.458;11.062;2023-08-30T07:21:19;99974.89;;;20.33;66.58
76808;BME280;65758;45.458;11.062;2023-08-30T07:23:46;99973.98;;;20.39;66.11
76808;BME280;65758;45.458;11.062;2023-08-30T07:26:13;99977.20;;;20.44;65.64
76808;BME280;65758;45.458;11.062;2023-08-30T07:28:39;99981.35;;;20.50;65.80
76808;BME280;65758;45.458;11.062;2023-08-30T07:31:06;99981.42;;;20.57;65.75
76808;BME280;65758;45.458;11.062;2023-08-30T07:33:33;99980.09;;;20.65;65.76
76808;BME280;65758;45.458;11.062;2023-08-30T07:36:00;99982.66;;;20.74;65.42
76808;BME280;65758;45.458;11.062;2023-08-30T07:38:27;99981.66;;;20.81;65.01
76808;BME280;65758;45.458;11.062;2023-08-30T07:40:54;99977.08;;;20.87;64.68
76808;BME280;65758;45.458;11.062;2023-08-30T07:43:21;99980.91;;;20.92;64.45
76808;BME280;65758;45.458;11.062;2023-08-30T07:45:48;99983.77;;;20.98;64.47
76808;BME280;65758;45.458;11.062;2023-08-30T07:48:14;99985.77;;;21.05;64.18
76808;BME280;65758;45.458;11.062;2023-08-30T07:50:42;99988.78;;;21.14;64.16
76808;BME280;65758;45.458;11.062;2023-08-30T07:53:09;99989.80;;;21.22;63.95
76808;BME280;65758;45.458;11.062;2023-08-30T07:55:37;99990.16;;;21.32;63.62
76808;BME280;65758;45.458;11.062;2023-08-30T07:58:04;99989.84;;;21.40;63.19
76808;BME280;65758;45.458;11.062;2023-08-30T08:00:31;99993.34;;;21.49;62.80
76808;BME280;65758;45.458;11.062;2023-08-30T08:02:58;99996.84;;;21.58;62.60
76808;BME280;65758;45.458;11.062;2023-08-30T08:05:24;100001.09;;;21.66;62.59
76808;BME280;65758;45.458;11.062;2023-08-30T08:07:52;100005.66;;;21.75;62.09
76808;BME280;65758;45.458;11.062;2023-08-30T08:10:20;100004.43;;;21.83;61.91
76808;BME280;65758;45.458;11.062;2023-08-30T08:12:47;100006.52;;;21.93;61.44
76808;BME280;65758;45.458;11.062;2023-08-30T08:15:14;100007.80;;;22.02;61.40
76808;BME280;65758;45.458;11.062;2023-08-30T08:17:40;100012.34;;;22.13;61.22
76808;BME280;65758;45.458;11.062;2023-08-30T08:20:08;100014.30;;;22.25;60.70
76808;BME280;65758;45.458;11.062;2023-08-30T08:22:35;100013.17;;;22.36;60.15
76808;BME280;65758;45.458;11.062;2023-08-30T08:25:02;100012.01;;;22.46;59.29
76808;BME280;65758;45.458;11.062;2023-08-30T08:27:29;100011.34;;;22.53;58.56
76808;BME280;65758;45.458;11.062;2023-08-30T08:29:56;100013.27;;;22.60;58.37
76808;BME280;65758;45.458;11.062;2023-08-30T08:32:23;100010.48;;;22.65;57.82
76808;BME280;65758;45.458;11.062;2023-08-30T08:34:50;100011.98;;;22.68;57.37
76808;BME280;65758;45.458;11.062;2023-08-30T08:37:17;100007.51;;;22.74;56.96
76808;BME280;65758;45.458;11.062;2023-08-30T08:39:44;100010.94;;;22.82;56.48
76808;BME280;65758;45.458;11.062;2023-08-30T08:42:13;100011.98;;;22.92;56.08
76808;BME280;65758;45.458;11.062;2023-08-30T08:44:43;100013.44;;;23.03;56.05
76808;BME280;65758;45.458;11.062;2023-08-30T08:47:11;100013.30;;;23.14;56.10
76808;BME280;65758;45.458;11.062;2023-08-30T08:49:38;100018.26;;;23.24;55.39
76808;BME280;65758;45.458;11.062;2023-08-30T08:52:06;100016.56;;;23.34;55.18
76808;BME280;65758;45.458;11.062;2023-08-30T08:54:49;100020.56;;;23.41;54.04
76808;BME280;65758;45.458;11.062;2023-08-30T08:57:17;100026.86;;;23.46;54.55
76808;BME280;65758;45.458;11.062;2023-08-30T08:59:46;100026.91;;;23.54;54.98
76808;BME280;65758;45.458;11.062;2023-08-30T09:02:14;100032.84;;;23.63;54.11
76808;BME280;65758;45.458;11.062;2023-08-30T09:04:41;100037.02;;;23.71;53.32
76808;BME280;65758;45.458;11.062;2023-08-30T09:07:08;100039.33;;;23.72;52.75
76808;BME280;65758;45.458;11.062;2023-08-30T09:09:35;100043.27;;;23.75;53.22
76808;BME280;65758;45.458;11.062;2023-08-30T09:12:03;100039.55;;;23.83;53.05
76808;BME280;65758;45.458;11.062;2023-08-30T09:14:30;100045.42;;;23.95;53.29
76808;BME280;65758;45.458;11.062;2023-08-30T09:16:59;100049.46;;;24.07;53.07
76808;BME280;65758;45.458;11.062;2023-08-30T09:19:27;100048.49;;;24.17;53.40
76808;BME280;65758;45.458;11.062;2023-08-30T09:21:58;100055.31;;;24.27;53.55
76808;BME280;65758;45.458;11.062;2023-08-30T09:24:37;100057.21;;;24.32;53.77
76808;BME280;65758;45.458;11.062;2023-08-30T09:27:06;100059.14;;;24.34;52.71
76808;BME280;65758;45.458;11.062;2023-08-30T09:29:33;100060.30;;;24.33;52.59
76808;BME280;65758;45.458;11.062;2023-08-30T09:32:00;100061.19;;;24.33;53.49
76808;BME280;65758;45.458;11.062;2023-08-30T09:34:27;100068.53;;;24.33;53.51
76808;BME280;65758;45.458;11.062;2023-08-30T09:36:55;100068.92;;;24.33;53.37
76808;BME280;65758;45.458;11.062;2023-08-30T09:39:22;100070.55;;;24.34;53.38
76808;BME280;65758;45.458;11.062;2023-08-30T09:41:50;100073.25;;;24.35;52.84
76808;BME280;65758;45.458;11.062;2023-08-30T09:44:21;100070.09;;;24.36;52.15
76808;BME280;65758;45.458;11.062;2023-08-30T09:46:52;100065.26;;;24.37;51.98
76808;BME280;65758;45.458;11.062;2023-08-30T09:49:21;100066.42;;;24.32;51.89
76808;BME280;65758;45.458;11.062;2023-08-30T09:51:50;100059.77;;;24.32;52.43
76808;BME280;65758;45.458;11.062;2023-08-30T09:54:21;100066.04;;;24.35;52.74
76808;BME280;65758;45.458;11.062;2023-08-30T09:56:54;100063.35;;;24.37;52.34
76808;BME280;65758;45.458;11.062;2023-08-30T09:59:23;100069.05;;;24.38;52.70
76808;BME280;65758;45.458;11.062;2023-08-30T10:01:50;100071.44;;;24.37;52.19
76808;BME280;65758;45.458;11.062;2023-08-30T10:04:21;100072.76;;;24.36;51.48
76808;BME280;65758;45.458;11.062;2023-08-30T10:06:51;100070.57;;;24.38;51.60
76808;BME280;65758;45.458;11.062;2023-08-30T10:09:21;100071.48;;;24.44;51.70
76808;BME280;65758;45.458;11.062;2023-08-30T10:11:50;100071.65;;;24.46;51.97
76808;BME280;65758;45.458;11.062;2023-08-30T10:14:21;100068.40;;;24.47;52.31
76808;BME280;65758;45.458;11.062;2023-08-30T10:16:49;100065.48;;;24.46;52.05
76808;BME280;65758;45.458;11.062;2023-08-30T10:19:24;100069.16;;;24.46;52.07
76808;BME280;65758;45.458;11.062;2023-08-30T10:22:02;100070.70;;;24.54;52.17
76808;BME280;65758;45.458;11.062;2023-08-30T10:24:41;100073.55;;;24.59;52.40
76808;BME280;65758;45.458;11.062;2023-08-30T10:27:30;100071.59;;;24.62;52.16
76808;BME280;65758;45.458;11.062;2023-08-30T10:29:59;100068.90;;;24.74;52.05
76808;BME280;65758;45.458;11.062;2023-08-30T10:32:27;100072.56;;;24.89;52.06
76808;BME280;65758;45.458;11.062;2023-08-30T10:34:54;100065.15;;;25.05;51.47
76808;BME280;65758;45.458;11.062;2023-08-30T10:37:26;100069.42;;;25.24;51.45
76808;BME280;65758;45.458;11.062;2023-08-30T10:39:59;100071.14;;;25.46;51.29
76808;BME280;65758;45.458;11.062;2023-08-30T10:42:29;100067.48;;;25.69;51.07
76808;BME280;65758;45.458;11.062;2023-08-30T10:44:57;100059.22;;;25.90;50.34
76808;BME280;65758;45.458;11.062;2023-08-30T10:47:40;100059.95;;;26.11;49.81
76808;BME280;65758;45.458;11.062;2023-08-30T10:50:09;100059.79;;;26.26;49.35
76808;BME280;65758;45.458;11.062;2023-08-30T10:52:37;100057.10;;;26.39;49.21
76808;BME280;65758;45.458;11.062;2023-08-30T10:57:35;100044.19;;;26.62;48.75
76808;BME280;65758;45.458;11.062;2023-08-30T11:02:48;100044.87;;;26.87;48.31
76808;BME280;65758;45.458;11.062;2023-08-30T11:05:16;100040.56;;;26.96;48.19
76808;BME280;65758;45.458;11.062;2023-08-30T11:07:45;100044.62;;;27.02;47.96
76808;BME280;65758;45.458;11.062;2023-08-30T11:10:14;100043.80;;;27.09;47.67
76808;BME280;65758;45.458;11.062;2023-08-30T11:12:41;100043.69;;;27.14;47.52
76808;BME280;65758;45.458;11.062;2023-08-30T11:15:10;100041.30;;;27.14;47.32
76808;BME280;65758;45.458;11.062;2023-08-30T11:17:37;100042.44;;;27.09;47.78
76808;BME280;65758;45.458;11.062;2023-08-30T11:20:07;100040.27;;;27.07;48.00
76808;BME280;65758;45.458;11.062;2023-08-30T11:22:37;100041.21;;;27.14;48.31
76808;BME280;65758;45.458;11.062;2023-08-30T11:25:05;100041.40;;;27.21;48.10
76808;BME280;65758;45.458;11.062;2023-08-30T11:27:32;100036.70;;;27.29;47.52
76808;BME280;65758;45.458;11.062;2023-08-30T11:30:02;100037.77;;;27.38;47.44
76808;BME280;65758;45.458;11.062;2023-08-30T11:32:36;100031.96;;;27.49;47.58
76808;BME280;65758;45.458;11.062;2023-08-30T11:35:04;100030.23;;;27.62;47.59
76808;BME280;65758;45.458;11.062;2023-08-30T11:37:32;100025.56;;;27.76;47.10
76808;BME280;65758;45.458;11.062;2023-08-30T11:40:00;100023.87;;;27.87;47.09
76808;BME280;65758;45.458;11.062;2023-08-30T11:42:27;100023.06;;;27.96;47.18
76808;BME280;65758;45.458;11.062;2023-08-30T11:44:54;100017.02;;;28.01;47.06
76808;BME280;65758;45.458;11.062;2023-08-30T11:47:25;100015.44;;;28.11;46.70
76808;BME280;65758;45.458;11.062;2023-08-30T11:49:56;100014.94;;;28.19;46.03
76808;BME280;65758;45.458;11.062;2023-08-30T11:52:24;100011.30;;;28.21;45.70
76808;BME280;65758;45.458;11.062;2023-08-30T11:54:52;100009.46;;;28.21;45.37
76808;BME280;65758;45.458;11.062;2023-08-30T11:57:20;100005.26;;;28.23;45.53
76808;BME280;65758;45.458;11.062;2023-08-30T11:59:48;100008.61;;;28.26;45.89
76808;BME280;65758;45.458;11.062;2023-08-30T12:02:17;100009.09;;;28.28;46.63
76808;BME280;65758;45.458;11.062;2023-08-30T12:04:46;100008.02;;;28.30;45.14
76808;BME280;65758;45.458;11.062;2023-08-30T12:07:24;100003.07;;;28.25;44.96
76808;BME280;65758;45.458;11.062;2023-08-30T12:09:52;100004.74;;;28.19;45.28
76808;BME280;65758;45.458;11.062;2023-08-30T12:12:19;100002.78;;;28.09;45.84
76808;BME280;65758;45.458;11.062;2023-08-30T12:14:54;100002.25;;;27.90;45.60
76808;BME280;65758;45.458;11.062;2023-08-30T12:17:23;99999.20;;;27.93;45.69
76808;BME280;65758;45.458;11.062;2023-08-30T12:19:56;99998.63;;;27.98;45.46
76808;BME280;65758;45.458;11.062;2023-08-30T12:22:23;100000.51;;;28.09;45.30
76808;BME280;65758;45.458;11.062;2023-08-30T12:24:51;99997.34;;;28.13;44.85
76808;BME280;65758;45.458;11.062;2023-08-30T12:27:18;99994.48;;;28.20;46.02
76808;BME280;65758;45.458;11.062;2023-08-30T12:29:45;99995.25;;;28.13;45.44
76808;BME280;65758;45.458;11.062;2023-08-30T12:32:12;99988.39;;;28.03;45.16
76808;BME280;65758;45.458;11.062;2023-08-30T12:34:38;99989.59;;;27.91;45.24
76808;BME280;65758;45.458;11.062;2023-08-30T12:37:05;99984.92;;;27.82;45.32
76808;BME280;65758;45.458;11.062;2023-08-30T12:39:32;99984.45;;;27.95;45.29
76808;BME280;65758;45.458;11.062;2023-08-30T12:41:59;99982.17;;;28.17;44.93
76808;BME280;65758;45.458;11.062;2023-08-30T12:44:26;99985.52;;;28.41;44.22
76808;BME280;65758;45.458;11.062;2023-08-30T12:46:53;99978.23;;;28.59;43.66
76808;BME280;65758;45.458;11.062;2023-08-30T12:49:20;99974.02;;;28.73;42.82
76808;BME280;65758;45.458;11.062;2023-08-30T12:51:47;99975.70;;;28.80;43.01
76808;BME280;65758;45.458;11.062;2023-08-30T12:54:14;99976.29;;;28.91;43.24
76808;BME280;65758;45.458;11.062;2023-08-30T12:56:41;99974.21;;;29.07;43.31
76808;BME280;65758;45.458;11.062;2023-08-30T12:59:09;99972.77;;;29.07;43.02
76808;BME280;65758;45.458;11.062;2023-08-30T13:01:35;99976.15;;;29.00;42.30
76808;BME280;65758;45.458;11.062;2023-08-30T13:04:06;99978.09;;;29.03;41.96
76808;BME280;65758;45.458;11.062;2023-08-30T13:06:34;99976.08;;;29.07;42.91
76808;BME280;65758;45.458;11.062;2023-08-30T13:09:01;99970.88;;;29.20;42.71